Yichun Heilongjiang, China
Current Conditions -  °F | °C
As of 5:00 PM on Sunday 21 Dec 2014 (Local Time) from ZYHB Reporting Station
Smoke Smoke  
Wind Chill: -13°   Ceiling: Unl
Heat Index:   Visibility: 1.8mi
Dew Point: -9°   Wind: 7mph
Humidity: 66%   Direction: 190°S
Pressure: 29.94"   Gusts: NA
Location:  47.7°N, 128.9°E
Report Text: ZYHB 210900Z 19003MPS 3000 FU NSC M18/M23 Q1014 BECMG TL10302500
Loading
Personal Weather Stations






























Interactive Weather Map New forecast layout! Learn more

10-Day Weather Forecast

Advertisements
Track Severe Weather on mobile